createdAt,value
2019-06-07T00:02:31.435Z,3.37
2019-06-07T00:05:07.634Z,4.03
2019-06-07T00:07:41.047Z,4.40
2019-06-07T00:10:31.258Z,4.50
2019-06-07T00:12:48.968Z,5.30
2019-06-07T00:15:28.717Z,4.03
2019-06-07T00:17:57.123Z,3.75
2019-06-07T00:20:30.317Z,3.98
2019-06-07T00:23:05.476Z,3.98
2019-06-07T00:25:38.664Z,4.62
2019-06-07T00:28:13.235Z,3.45
2019-06-07T00:30:52.189Z,3.22
2019-06-07T00:33:24.356Z,2.75
2019-06-07T00:35:56.445Z,2.80
2019-06-07T00:38:29.586Z,3.37
2019-06-07T00:41:02.765Z,2.65
2019-06-07T00:43:35.892Z,2.30
2019-06-07T00:46:12.842Z,2.42
2019-06-07T00:48:43.963Z,2.70
2019-06-07T00:51:18.727Z,3.33
2019-06-07T00:53:51.771Z,2.10
2019-06-07T00:56:25.180Z,2.80
2019-06-07T00:59:11.138Z,1.80
2019-06-07T01:01:34.913Z,2.55
2019-06-07T01:04:08.172Z,2.27
2019-06-07T01:06:41.488Z,2.60
2019-06-07T01:09:15.319Z,2.10
2019-06-07T01:11:48.521Z,2.30
2019-06-07T01:14:24.516Z,2.20
2019-06-07T01:17:13.341Z,2.50
2019-06-07T01:19:31.333Z,2.12
2019-06-07T01:22:04.344Z,2.50
2019-06-07T01:24:37.541Z,2.83
2019-06-07T01:27:10.700Z,2.30
2019-06-07T01:29:43.855Z,2.27
2019-06-07T01:32:18.794Z,2.60
2019-06-07T01:34:51.822Z,2.95
2019-06-07T01:37:27.771Z,2.83
2019-06-07T01:39:59.823Z,2.98
2019-06-07T01:42:33.041Z,2.98
2019-06-07T01:45:10.480Z,3.12
2019-06-07T01:47:43.688Z,3.00
2019-06-07T01:50:22.500Z,3.42
2019-06-07T01:52:53.460Z,3.37
2019-06-07T01:55:28.850Z,2.98
2019-06-07T01:58:01.227Z,3.20
2019-06-07T02:00:34.352Z,2.62
2019-06-07T02:03:07.444Z,3.45
2019-06-07T02:05:40.683Z,2.90
2019-06-07T02:08:13.786Z,2.60
2019-06-07T02:10:46.980Z,2.58
2019-06-07T02:13:21.222Z,2.92
2019-06-07T02:18:29.037Z,3.45
2019-06-07T02:21:01.452Z,3.47
2019-06-07T02:23:34.549Z,4.53
2019-06-07T02:26:07.605Z,4.40
2019-06-07T02:28:45.656Z,5.55
2019-06-07T02:31:16.505Z,6.58
2019-06-07T02:33:49.842Z,6.30
2019-06-07T02:36:29.203Z,6.58
2019-06-07T02:38:57.810Z,7.95
2019-06-07T02:41:38.559Z,6.95
2019-06-07T02:44:06.503Z,8.90
2019-06-07T02:46:47.053Z,8.18
2019-06-07T02:49:14.477Z,7.75
2019-06-07T02:51:47.578Z,7.75
2019-06-07T02:54:20.763Z,6.85
2019-06-07T02:56:58.842Z,5.83
2019-06-07T02:59:59.666Z,5.97
2019-06-07T03:02:03.748Z,4.65
2019-06-07T03:04:41.529Z,4.55
2019-06-07T03:07:11.707Z,4.20
2019-06-07T03:09:45.169Z,3.60
2019-06-07T03:12:18.478Z,3.92
2019-06-07T03:14:51.514Z,3.55
2019-06-07T03:17:41.927Z,4.28
2019-06-07T03:20:18.179Z,4.53
2019-06-07T03:22:51.706Z,5.05
2019-06-07T03:25:25.765Z,4.93
2019-06-07T03:27:58.861Z,4.78
2019-06-07T03:30:39.802Z,5.08
2019-06-07T03:33:09.389Z,7.47
2019-06-07T03:35:42.591Z,7.37
2019-06-07T03:38:15.697Z,6.53
2019-06-07T03:40:48.782Z,6.87
2019-06-07T03:43:22.951Z,7.45
2019-06-07T03:45:57.828Z,8.53
2019-06-07T03:48:32.909Z,9.20
2019-06-07T03:51:23.604Z,10.25
2019-06-07T03:53:40.912Z,9.60
2019-06-07T03:56:15.218Z,9.38
2019-06-07T03:58:50.552Z,9.03
2019-06-07T04:01:24.019Z,7.78
2019-06-07T04:03:57.071Z,6.47
2019-06-07T04:06:32.576Z,6.10
2019-06-07T04:09:06.856Z,5.87
2019-06-07T04:11:40.914Z,6.22
2019-06-07T04:14:14.053Z,6.20
2019-06-07T04:16:47.274Z,6.72
2019-06-07T04:19:21.324Z,6.22
2019-06-07T04:21:54.360Z,6.87
2019-06-07T04:24:28.627Z,6.42
2019-06-07T04:27:01.774Z,6.12
2019-06-07T04:29:56.884Z,5.25
2019-06-07T04:32:10.738Z,5.67
2019-06-07T04:34:43.867Z,5.87
2019-06-07T04:37:17.851Z,6.62
2019-06-07T04:39:51.074Z,5.65
2019-06-07T04:42:25.330Z,5.92
2019-06-07T04:44:58.740Z,6.72
2019-06-07T04:47:33.780Z,6.25
2019-06-07T04:50:06.762Z,7.53
2019-06-07T04:52:42.667Z,7.03
2019-06-07T04:55:14.690Z,6.85
2019-06-07T04:57:51.972Z,7.28
2019-06-07T05:00:49.878Z,7.12
2019-06-07T05:03:06.576Z,6.70
2019-06-07T05:05:41.879Z,5.15
2019-06-07T05:08:27.638Z,6.30
2019-06-07T05:10:50.737Z,5.55
2019-06-07T05:13:23.953Z,5.20
2019-06-07T05:15:57.046Z,7.20
2019-06-07T05:18:30.299Z,7.58
2019-06-07T05:21:03.339Z,7.12
2019-06-07T05:24:05.674Z,13.75
2019-06-07T05:26:11.222Z,8.35
2019-06-07T05:28:44.419Z,10.68
2019-06-07T05:31:17.670Z,6.20
2019-06-07T05:33:52.100Z,9.45
2019-06-07T05:36:25.403Z,5.83
2019-06-07T05:38:58.533Z,9.13
2019-06-07T05:41:32.292Z,7.20
2019-06-07T05:44:13.216Z,5.17
2019-06-07T05:46:47.601Z,4.97
2019-06-07T05:49:20.929Z,3.60
2019-06-07T05:51:53.995Z,3.27
2019-06-07T05:54:28.149Z,2.58
2019-06-07T05:57:01.252Z,2.80
2019-06-07T05:59:38.306Z,2.72
2019-06-07T06:02:22.304Z,2.80
2019-06-07T06:04:50.450Z,2.87
2019-06-07T06:07:23.568Z,2.40
2019-06-07T06:09:56.711Z,2.52
2019-06-07T06:12:35.123Z,3.58
2019-06-07T06:15:07.372Z,3.10
2019-06-07T06:17:46.141Z,3.35
2019-06-07T06:20:18.223Z,2.95
2019-06-07T06:22:51.523Z,2.85
2019-06-07T06:25:33.927Z,3.08
2019-06-07T06:28:11.937Z,2.40
2019-06-07T06:30:34.222Z,2.42
2019-06-07T06:33:07.465Z,2.40
2019-06-07T06:35:42.346Z,2.20
2019-06-07T06:38:15.647Z,2.25
2019-06-07T06:40:55.021Z,2.22
2019-06-07T06:43:23.570Z,2.10
2019-06-07T06:45:56.730Z,1.87
2019-06-07T06:48:29.820Z,1.70
2019-06-07T06:51:05.144Z,1.65
2019-06-07T06:53:40.040Z,1.90
2019-06-07T06:56:13.113Z,2.33
2019-06-07T06:59:27.388Z,1.80
2019-06-07T07:01:21.188Z,2.17
2019-06-07T07:04:11.158Z,2.58
2019-06-07T07:06:32.027Z,2.90
2019-06-07T07:09:06.465Z,2.65
2019-06-07T07:11:55.228Z,1.98
2019-06-07T07:14:14.557Z,2.05
2019-06-07T07:16:50.027Z,1.98
2019-06-07T07:19:23.731Z,1.47
2019-06-07T07:21:58.383Z,1.33
2019-06-07T07:24:33.184Z,1.12
2019-06-07T07:27:06.190Z,1.47
2019-06-07T07:29:39.235Z,1.60
2019-06-07T07:32:16.031Z,1.10
2019-06-07T07:34:51.922Z,1.72
2019-06-07T07:37:23.885Z,1.47
2019-06-07T07:40:21.390Z,1.90
2019-06-07T07:42:32.884Z,1.40
2019-06-07T07:45:07.705Z,1.45
2019-06-07T07:47:58.423Z,2.40
2019-06-07T07:50:16.699Z,1.72
2019-06-07T07:52:55.954Z,2.30
2019-06-07T07:55:24.623Z,1.77
2019-06-07T07:58:01.746Z,1.32
2019-06-07T08:03:07.917Z,2.10
2019-06-07T08:05:43.362Z,2.60
2019-06-07T08:08:15.915Z,2.70
2019-06-07T08:10:51.887Z,2.13
2019-06-07T08:13:26.974Z,2.30
2019-06-07T08:16:00.449Z,2.65
2019-06-07T08:18:33.412Z,1.87
2019-06-07T08:21:23.686Z,1.70
2019-06-07T08:23:42.264Z,1.90
2019-06-07T08:28:48.356Z,1.40
2019-06-07T08:31:22.514Z,1.50
2019-06-07T08:33:58.424Z,1.77
2019-06-07T08:36:41.846Z,1.82
2019-06-07T08:39:08.287Z,2.35
2019-06-07T08:41:54.027Z,2.17
2019-06-07T08:44:23.865Z,1.57
2019-06-07T08:47:11.685Z,1.30
2019-06-07T08:49:28.286Z,1.52
2019-06-07T08:52:09.833Z,1.43
2019-06-07T08:54:38.828Z,1.95
2019-06-07T08:57:20.664Z,1.80
2019-06-07T08:59:46.725Z,1.40
2019-06-07T09:02:23.721Z,1.45
2019-06-07T09:04:56.989Z,1.10
2019-06-07T09:07:29.445Z,1.37
2019-06-07T09:10:09.375Z,1.62
2019-06-07T09:12:37.490Z,1.07
2019-06-07T09:15:21.382Z,1.30
2019-06-07T09:18:30.428Z,1.27
2019-06-07T09:20:36.439Z,1.30
2019-06-07T09:22:58.959Z,1.27
2019-06-07T09:25:31.171Z,1.57
2019-06-07T09:28:14.108Z,1.30
2019-06-07T09:30:43.390Z,1.90
2019-06-07T09:33:16.444Z,1.40
2019-06-07T09:35:49.674Z,1.42
2019-06-07T09:38:26.286Z,1.45
2019-06-07T09:40:59.889Z,1.27
2019-06-07T09:46:12.795Z,2.33
2019-06-07T09:51:20.299Z,2.60
2019-06-07T09:53:53.770Z,2.10
2019-06-07T09:56:27.061Z,1.72
2019-06-07T09:59:02.974Z,2.43
2019-06-07T10:01:35.035Z,1.65
2019-06-07T10:04:16.739Z,2.47
2019-06-07T10:06:44.364Z,2.95
2019-06-07T10:11:52.662Z,3.77
2019-06-07T10:14:25.698Z,3.92
2019-06-07T10:16:58.966Z,4.25
2019-06-07T10:19:32.082Z,3.60
2019-06-07T10:22:05.836Z,4.28
2019-06-07T10:24:39.104Z,4.55
2019-06-07T10:27:12.233Z,4.75
2019-06-07T10:29:46.439Z,4.65
2019-06-07T10:32:19.634Z,4.83
2019-06-07T10:34:52.774Z,6.40
2019-06-07T10:37:25.917Z,5.57
2019-06-07T10:39:59.041Z,4.70
2019-06-07T10:42:34.568Z,4.65
2019-06-07T10:45:08.682Z,4.70
2019-06-07T10:47:42.987Z,3.52
2019-06-07T10:50:16.103Z,3.17
2019-06-07T10:52:49.185Z,3.52
2019-06-07T10:55:22.382Z,3.30
2019-06-07T10:57:55.484Z,3.33
2019-06-07T11:00:28.633Z,3.77
2019-06-07T11:03:01.854Z,3.87
2019-06-07T11:05:35.071Z,3.87
2019-06-07T11:08:10.223Z,3.27
2019-06-07T11:10:43.521Z,3.60
2019-06-07T11:13:16.600Z,3.37
2019-06-07T11:15:51.604Z,3.35
2019-06-07T11:18:24.878Z,3.40
2019-06-07T11:20:57.985Z,2.90
2019-06-07T11:23:32.145Z,3.15
2019-06-07T11:26:06.400Z,2.83
2019-06-07T11:28:39.682Z,2.83
2019-06-07T11:31:15.061Z,2.17
2019-06-07T11:33:48.420Z,1.70
2019-06-07T11:36:21.515Z,1.85
2019-06-07T11:38:54.695Z,2.10
2019-06-07T11:41:27.796Z,2.30
2019-06-07T11:44:01.111Z,2.23
2019-06-07T11:46:34.237Z,1.98
2019-06-07T11:49:08.253Z,2.65
2019-06-07T11:51:41.491Z,4.30
2019-06-07T11:54:16.120Z,3.80
2019-06-07T11:56:49.437Z,3.47
2019-06-07T11:59:22.538Z,2.98
2019-06-07T12:01:57.018Z,2.92
2019-06-07T12:04:34.808Z,2.52
2019-06-07T12:07:04.926Z,2.00
2019-06-07T12:09:38.091Z,2.90
2019-06-07T12:12:12.528Z,3.20
2019-06-07T12:14:46.640Z,2.85
2019-06-07T12:17:19.826Z,2.40
2019-06-07T12:19:53.111Z,2.70
2019-06-07T12:22:26.168Z,2.75
2019-06-07T12:24:59.365Z,2.73
2019-06-07T12:27:32.586Z,3.05
2019-06-07T12:30:19.493Z,3.00
2019-06-07T12:32:45.262Z,2.87
2019-06-07T12:35:19.843Z,2.37
2019-06-07T12:37:53.156Z,3.00
2019-06-07T12:40:32.077Z,3.22
2019-06-07T12:43:01.277Z,2.62
2019-06-07T12:45:44.354Z,2.80
2019-06-07T12:48:09.271Z,2.05
2019-06-07T12:50:44.091Z,2.47
2019-06-07T12:53:23.725Z,2.47
2019-06-07T12:55:54.191Z,2.33
2019-06-07T12:58:35.312Z,2.72
2019-06-07T13:01:04.855Z,2.05
2019-06-07T13:03:38.043Z,2.33
2019-06-07T13:06:12.210Z,1.80
2019-06-07T13:08:45.198Z,2.42
2019-06-07T13:11:26.136Z,2.40
2019-06-07T13:13:55.559Z,2.22
2019-06-07T13:16:28.627Z,2.47
2019-06-07T13:19:01.743Z,3.52
2019-06-07T13:21:34.852Z,1.82
2019-06-07T13:24:08.122Z,2.75
2019-06-07T13:26:41.242Z,2.22
2019-06-07T13:29:16.399Z,2.75
2019-06-07T13:31:49.632Z,2.08
2019-06-07T13:34:24.180Z,2.20
2019-06-07T13:36:58.554Z,2.20
2019-06-07T13:39:31.768Z,2.10
2019-06-07T13:42:05.358Z,2.55
2019-06-07T13:44:38.485Z,2.60
2019-06-07T13:47:11.667Z,2.70
2019-06-07T13:49:44.795Z,3.10
2019-06-07T13:52:17.910Z,2.67
2019-06-07T13:54:51.179Z,2.73
2019-06-07T13:57:24.481Z,2.75
2019-06-07T13:59:57.538Z,2.62
2019-06-07T14:02:30.707Z,2.00
2019-06-07T14:05:05.080Z,2.40
2019-06-07T14:07:39.410Z,2.12
2019-06-07T14:10:12.620Z,2.80
2019-06-07T14:12:45.888Z,2.72
2019-06-07T14:15:20.340Z,3.00
2019-06-07T14:17:53.718Z,2.70
2019-06-07T14:20:32.010Z,2.27
2019-06-07T14:23:01.724Z,2.00
2019-06-07T14:25:34.883Z,2.00
2019-06-07T14:28:11.438Z,2.53
2019-06-07T14:30:42.905Z,2.60
2019-06-07T14:33:16.079Z,2.20
2019-06-07T14:35:49.342Z,2.47
2019-06-07T14:38:23.049Z,2.80
2019-06-07T14:40:56.295Z,2.87
2019-06-07T14:43:29.678Z,2.30
2019-06-07T14:46:02.926Z,3.85
2019-06-07T14:48:37.169Z,1.82
2019-06-07T15:03:15.246Z,2.10
2019-06-07T15:05:49.266Z,1.90
2019-06-07T15:08:22.853Z,1.75
2019-06-07T15:10:56.166Z,1.90
2019-06-07T15:16:04.111Z,1.82
2019-06-07T15:18:37.948Z,1.70
2019-06-07T15:21:11.197Z,2.10
2019-06-07T15:23:44.359Z,1.82
2019-06-07T15:26:17.590Z,2.35
2019-06-07T15:28:50.980Z,2.42
2019-06-07T15:31:24.340Z,2.60
2019-06-07T15:33:57.418Z,2.70
2019-06-07T15:36:30.542Z,3.27
2019-06-07T17:09:47.783Z,2.40
2019-06-07T17:22:06.382Z,4.60
2019-06-07T17:24:39.613Z,8.95
